createdAt,value
2016-09-22T00:00:29.286Z,1018.09
2016-09-22T00:01:29.308Z,1018.05
2016-09-22T00:02:29.330Z,1018.09
2016-09-22T00:03:29.352Z,1018.08
2016-09-22T00:04:29.373Z,1018.06
2016-09-22T00:05:29.397Z,1018.06
2016-09-22T00:06:29.419Z,1018.05
2016-09-22T00:07:29.442Z,1018.05
2016-09-22T00:08:29.465Z,1018.06
2016-09-22T00:09:29.485Z,1018.07
2016-09-22T00:11:29.529Z,1018.07
2016-09-22T00:12:29.552Z,1018.09
2016-09-22T00:13:29.572Z,1018.03
2016-09-22T00:14:29.595Z,1018.06
2016-09-22T00:15:29.617Z,1018.02
2016-09-22T00:16:29.642Z,1018.1
2016-09-22T00:17:29.662Z,1018.05
2016-09-22T00:18:29.684Z,1018.06
2016-09-22T00:19:29.706Z,1018.07
2016-09-22T00:20:29.729Z,1018.09
2016-09-22T00:21:29.750Z,1018.11
2016-09-22T00:22:29.772Z,1018.08
2016-09-22T00:23:29.795Z,1018.07
2016-09-22T00:24:29.820Z,1018.11
2016-09-22T00:26:29.865Z,1018.11
2016-09-22T00:27:29.884Z,1018.09
2016-09-22T00:28:29.906Z,1018.14
2016-09-22T00:29:29.930Z,1018.13
2016-09-22T00:30:29.954Z,1018.12
2016-09-22T00:31:29.977Z,1018.1
2016-09-22T00:32:29.995Z,1018.13
2016-09-22T00:33:30.018Z,1018.09
2016-09-22T00:34:30.041Z,1018.09
2016-09-22T00:35:30.061Z,1018.09
2016-09-22T00:36:30.086Z,1018.1
2016-09-22T00:37:30.106Z,1018.06
2016-09-22T00:38:30.127Z,1018.12
2016-09-22T00:39:30.150Z,1018.09
2016-09-22T00:40:30.172Z,1018.1
2016-09-22T00:41:30.196Z,1018.08
2016-09-22T00:42:30.216Z,1018.08
2016-09-22T00:43:30.238Z,1018.12
2016-09-22T00:44:30.260Z,1018.1
2016-09-22T00:45:30.283Z,1018.07
2016-09-22T00:46:30.306Z,1018.13
2016-09-22T00:47:30.328Z,1018.08
2016-09-22T00:48:30.399Z,1018.04
2016-09-22T00:49:30.372Z,1018.08
2016-09-22T00:50:30.394Z,1018.07
2016-09-22T00:51:30.417Z,1018.09
2016-09-22T00:52:30.440Z,1018.07
2016-09-22T00:53:30.457Z,1018.06
2016-09-22T00:54:30.479Z,1018.08
2016-09-22T00:55:30.502Z,1018.1
2016-09-22T00:56:30.524Z,1018.1
2016-09-22T00:58:30.570Z,1018.07
2016-09-22T00:59:30.591Z,1018.1
2016-09-22T01:00:30.612Z,1018.08
2016-09-22T01:01:30.635Z,1018.08
2016-09-22T01:02:30.656Z,1018.04
2016-09-22T01:03:30.680Z,1018.09
2016-09-22T01:04:30.701Z,1018.11
2016-09-22T01:05:30.721Z,1018.12
2016-09-22T01:06:30.744Z,1018.1
2016-09-22T01:07:30.764Z,1018.11
2016-09-22T01:08:30.786Z,1018.08
2016-09-22T01:09:30.808Z,1018.1
2016-09-22T01:10:30.833Z,1018.07
2016-09-22T01:11:30.854Z,1018.07
2016-09-22T01:12:30.875Z,1018.08
2016-09-22T01:14:30.918Z,1018.07
2016-09-22T01:15:30.941Z,1018.07
2016-09-22T01:16:30.963Z,1018.07
2016-09-22T01:17:30.985Z,1018.04
2016-09-22T01:18:31.007Z,1018.05
2016-09-22T01:19:31.026Z,1018.06
2016-09-22T01:20:31.049Z,1018.04
2016-09-22T01:21:31.070Z,1018.04
2016-09-22T01:22:31.091Z,1018.03
2016-09-22T01:23:31.116Z,1018.02
2016-09-22T01:24:31.136Z,1017.98
2016-09-22T01:25:31.159Z,1018
2016-09-22T01:26:31.180Z,1018.07
2016-09-22T01:27:31.203Z,1018
2016-09-22T01:28:31.224Z,1018.04
2016-09-22T01:30:31.267Z,1018.07
2016-09-22T01:31:31.288Z,1018.08
2016-09-22T01:32:31.309Z,1018.09
2016-09-22T01:33:31.332Z,1018.05
2016-09-22T01:34:31.353Z,1018.09
2016-09-22T01:35:31.376Z,1018.11
2016-09-22T01:36:31.397Z,1018.1
2016-09-22T01:37:31.417Z,1018.06
2016-09-22T01:38:31.441Z,1018.1
2016-09-22T01:39:31.462Z,1018.09
2016-09-22T01:40:31.481Z,1018.1
2016-09-22T01:41:31.505Z,1018.09
2016-09-22T01:42:31.528Z,1018.11
2016-09-22T01:43:31.547Z,1018.09
2016-09-22T01:44:31.571Z,1018.08
2016-09-22T01:46:31.614Z,1018.08
2016-09-22T01:47:31.633Z,1018.06
2016-09-22T01:48:31.656Z,1018.07
2016-09-22T01:49:31.676Z,1018.09
2016-09-22T01:50:31.702Z,1018.05
2016-09-22T01:51:31.721Z,1018.07
2016-09-22T01:52:31.746Z,1018.07
2016-09-22T01:53:31.764Z,1018.09
2016-09-22T01:54:31.786Z,1018.1
2016-09-22T01:55:31.807Z,1018.11
2016-09-22T01:56:31.828Z,1018.09
2016-09-22T01:57:31.850Z,1018.14
2016-09-22T01:58:31.870Z,1018.12
2016-09-22T01:59:31.892Z,1018.13
2016-09-22T02:01:31.937Z,1018.12
2016-09-22T02:02:31.958Z,1018.12
2016-09-22T02:03:31.979Z,1018.12
2016-09-22T02:04:31.999Z,1018.12
2016-09-22T02:05:32.021Z,1018.11
2016-09-22T02:06:32.042Z,1018.09
2016-09-22T02:07:32.063Z,1018.1
2016-09-22T02:08:32.087Z,1018.14
2016-09-22T02:09:32.106Z,1018.14
2016-09-22T02:10:32.127Z,1018.16
2016-09-22T02:11:32.151Z,1018.11
2016-09-22T02:12:32.170Z,1018.08
2016-09-22T02:13:32.193Z,1018.09
2016-09-22T02:14:32.215Z,1018.09
2016-09-22T02:15:32.235Z,1018.18
2016-09-22T02:16:32.257Z,1018.16
2016-09-22T02:17:32.279Z,1018.14
2016-09-22T02:18:32.299Z,1018.17
2016-09-22T02:19:32.322Z,1018.14
2016-09-22T02:20:32.340Z,1018.17
2016-09-22T02:21:32.364Z,1018.17
2016-09-22T02:22:32.386Z,1018.17
2016-09-22T02:23:32.408Z,1018.19
2016-09-22T02:24:32.427Z,1018.17
2016-09-22T02:25:32.450Z,1018.2
2016-09-22T02:26:32.471Z,1018.19
2016-09-22T02:27:32.491Z,1018.19
2016-09-22T02:28:32.513Z,1018.25
2016-09-22T02:29:32.533Z,1018.18
2016-09-22T02:30:32.557Z,1018.21
2016-09-22T02:31:32.577Z,1018.2
2016-09-22T02:33:32.618Z,1018.2
2016-09-22T02:34:32.642Z,1018.14
2016-09-22T02:35:32.662Z,1018.23
2016-09-22T02:36:32.681Z,1018.27
2016-09-22T02:37:32.706Z,1018.2
2016-09-22T02:38:32.727Z,1018.19
2016-09-22T02:39:32.745Z,1018.19
2016-09-22T02:40:32.767Z,1018.21
2016-09-22T02:41:32.786Z,1018.2
2016-09-22T02:42:32.812Z,1018.22
2016-09-22T02:43:32.832Z,1018.22
2016-09-22T02:44:32.853Z,1018.24
2016-09-22T02:45:32.875Z,1018.21
2016-09-22T02:46:32.895Z,1018.21
2016-09-22T02:47:32.914Z,1018.21
2016-09-22T02:49:32.960Z,1018.26
2016-09-22T02:50:32.978Z,1018.25
2016-09-22T02:51:33.001Z,1018.24
2016-09-22T02:52:33.021Z,1018.26
2016-09-22T02:53:33.041Z,1018.25
2016-09-22T02:54:33.065Z,1018.21
2016-09-22T02:55:33.086Z,1018.24
2016-09-22T02:56:33.108Z,1018.21
2016-09-22T02:57:33.128Z,1018.19
2016-09-22T02:58:33.149Z,1018.21
2016-09-22T02:59:33.171Z,1018.2
2016-09-22T03:00:33.192Z,1018.2
2016-09-22T03:01:33.262Z,1018.24
2016-09-22T03:02:33.234Z,1018.19
2016-09-22T03:03:33.253Z,1018.22
2016-09-22T03:05:33.296Z,1018.22
2016-09-22T03:06:33.318Z,1018.21
2016-09-22T03:07:33.338Z,1018.2
2016-09-22T03:08:33.360Z,1018.22
2016-09-22T03:09:33.381Z,1018.19
2016-09-22T03:10:33.402Z,1018.14
2016-09-22T03:11:33.425Z,1018.16
2016-09-22T03:12:33.444Z,1018.17
2016-09-22T03:13:33.463Z,1018.18
2016-09-22T03:14:33.485Z,1018.2
2016-09-22T03:15:33.505Z,1018.15
2016-09-22T03:16:33.528Z,1018.19
2016-09-22T03:17:33.549Z,1018.21
2016-09-22T03:18:33.571Z,1018.23
2016-09-22T03:19:33.589Z,1018.22
2016-09-22T03:21:33.634Z,1018.23
2016-09-22T03:22:33.653Z,1018.2
2016-09-22T03:23:33.675Z,1018.21
2016-09-22T03:24:33.696Z,1018.17
2016-09-22T03:25:33.716Z,1018.23
2016-09-22T03:26:33.735Z,1018.21
2016-09-22T03:27:33.759Z,1018.16
2016-09-22T03:28:33.780Z,1018.2
2016-09-22T03:29:33.800Z,1018.2
2016-09-22T03:30:34.471Z,1018.17
2016-09-22T03:31:33.840Z,1018.19
2016-09-22T03:32:33.862Z,1018.19
2016-09-22T03:33:33.883Z,1018.17
2016-09-22T03:34:33.904Z,1018.18
2016-09-22T03:36:33.949Z,1018.14
2016-09-22T03:37:33.968Z,1018.17
2016-09-22T03:38:33.990Z,1018.14
2016-09-22T03:39:34.009Z,1018.09
2016-09-22T03:40:34.031Z,1018.12
2016-09-22T03:41:34.052Z,1018.12
2016-09-22T03:42:34.074Z,1018.14
2016-09-22T03:43:34.095Z,1018.1
2016-09-22T03:44:34.115Z,1018.09
2016-09-22T03:45:34.134Z,1018.07
2016-09-22T03:46:34.155Z,1018.05
2016-09-22T03:47:34.178Z,1018.07
2016-09-22T03:48:34.196Z,1018.06
2016-09-22T03:49:34.217Z,1018.08
2016-09-22T03:50:34.238Z,1018.06
2016-09-22T03:51:34.262Z,1018.09
2016-09-22T03:52:34.279Z,1018.11
2016-09-22T03:53:34.302Z,1018.12
2016-09-22T03:54:34.323Z,1018.09
2016-09-22T03:55:34.341Z,1018.07
2016-09-22T03:56:34.365Z,1018.08
2016-09-22T03:57:34.386Z,1018.08
2016-09-22T03:58:34.406Z,1018.09
2016-09-22T03:59:34.426Z,1018.08
2016-09-22T04:00:34.445Z,1018.08
2016-09-22T04:01:34.467Z,1018.1
2016-09-22T04:02:34.489Z,1018.08
2016-09-22T04:03:34.509Z,1018.09
2016-09-22T04:04:34.528Z,1018.08
2016-09-22T04:05:34.549Z,1018.08
2016-09-22T04:06:34.571Z,1018.1
2016-09-22T04:08:34.613Z,1018.08
2016-09-22T04:09:34.632Z,1018.09
2016-09-22T04:10:34.652Z,1018.09
2016-09-22T04:11:34.673Z,1018.12
2016-09-22T04:12:34.695Z,1018.12
2016-09-22T04:13:34.717Z,1018.16
2016-09-22T04:14:34.735Z,1018.14
2016-09-22T04:15:34.756Z,1018.15
2016-09-22T04:16:34.777Z,1018.14
2016-09-22T04:17:34.798Z,1018.14
2016-09-22T04:18:34.817Z,1018.13
2016-09-22T04:19:34.839Z,1018.17
2016-09-22T04:20:34.861Z,1018.14
2016-09-22T04:21:34.879Z,1018.14
2016-09-22T04:22:34.900Z,1018.18
2016-09-22T04:24:34.941Z,1018.15
2016-09-22T04:25:34.964Z,1018.14
2016-09-22T04:26:34.985Z,1018.14
2016-09-22T04:27:35.003Z,1018.12
2016-09-22T04:28:35.029Z,1018.11
2016-09-22T04:29:35.045Z,1018.1
2016-09-22T04:30:35.065Z,1018.11
2016-09-22T04:31:35.088Z,1018.13
2016-09-22T04:32:35.105Z,1018.1
2016-09-22T04:33:35.126Z,1018.14
2016-09-22T04:34:35.146Z,1018.18
2016-09-22T04:35:35.170Z,1018.13
2016-09-22T04:36:35.188Z,1018.18
2016-09-22T04:37:35.210Z,1018.19
2016-09-22T04:38:35.229Z,1018.19
2016-09-22T04:40:35.270Z,1018.15
2016-09-22T04:41:35.293Z,1018.18
2016-09-22T04:42:35.313Z,1018.16
2016-09-22T04:43:35.333Z,1018.15
2016-09-22T04:44:35.353Z,1018.16
2016-09-22T04:45:35.373Z,1018.16
2016-09-22T04:46:35.394Z,1018.17
2016-09-22T04:47:35.413Z,1018.16
2016-09-22T04:48:35.434Z,1018.14
2016-09-22T04:49:35.454Z,1018.19
2016-09-22T04:50:35.475Z,1018.16
2016-09-22T04:51:35.497Z,1018.13
2016-09-22T04:52:35.519Z,1018.2
2016-09-22T04:53:35.537Z,1018.17
2016-09-22T04:54:35.556Z,1018.18
2016-09-22T04:56:35.600Z,1018.16
2016-09-22T04:57:35.621Z,1018.1
2016-09-22T04:58:35.638Z,1018.12
2016-09-22T04:59:35.659Z,1018.16
2016-09-22T05:00:35.680Z,1018.15
2016-09-22T05:01:35.700Z,1018.11
2016-09-22T05:02:35.720Z,1018.17
2016-09-22T05:03:35.743Z,1018.13
2016-09-22T05:04:35.762Z,1018.15
2016-09-22T05:05:35.782Z,1018.16
2016-09-22T05:06:35.803Z,1018.17
2016-09-22T05:07:35.825Z,1018.14
2016-09-22T05:08:35.845Z,1018.16
2016-09-22T05:09:35.865Z,1018.18
2016-09-22T05:11:35.907Z,1018.17
2016-09-22T05:12:35.926Z,1018.21
2016-09-22T05:13:35.946Z,1018.19
2016-09-22T05:14:35.969Z,1018.21
2016-09-22T05:15:35.990Z,1018.15
2016-09-22T05:16:36.008Z,1018.16
2016-09-22T05:17:36.032Z,1018.19
2016-09-22T05:18:36.253Z,1018.18
2016-09-22T05:19:36.072Z,1018.17
2016-09-22T05:20:36.091Z,1018.18
2016-09-22T05:21:36.112Z,1018.16
2016-09-22T05:22:36.140Z,1018.18
2016-09-22T05:23:36.153Z,1018.2
2016-09-22T05:24:36.174Z,1018.26
2016-09-22T05:25:36.197Z,1018.34
2016-09-22T05:26:36.218Z,1018.26
2016-09-22T05:27:36.239Z,1018.25
2016-09-22T05:28:36.258Z,1018.3
2016-09-22T05:29:36.285Z,1018.28
2016-09-22T05:30:36.301Z,1018.3
2016-09-22T05:31:36.321Z,1018.28
2016-09-22T05:32:36.345Z,1018.32
2016-09-22T05:33:36.366Z,1018.34
2016-09-22T05:34:36.387Z,1018.31
2016-09-22T05:35:36.406Z,1018.36
2016-09-22T05:36:36.436Z,1018.44
2016-09-22T05:37:36.452Z,1018.42
2016-09-22T05:38:36.470Z,1018.39
2016-09-22T05:39:36.492Z,1018.39
2016-09-22T05:40:36.518Z,1018.34
2016-09-22T05:41:36.535Z,1018.38
2016-09-22T05:43:36.578Z,1018.39
2016-09-22T05:44:36.602Z,1018.36
2016-09-22T05:45:36.620Z,1018.36
2016-09-22T05:46:36.644Z,1018.42
2016-09-22T05:47:36.665Z,1018.44
2016-09-22T05:48:36.686Z,1018.48
2016-09-22T05:49:36.708Z,1018.46
2016-09-22T05:50:36.732Z,1018.55
2016-09-22T05:51:36.752Z,1018.43
2016-09-22T05:52:36.772Z,1018.32
2016-09-22T05:53:36.796Z,1018.28
2016-09-22T05:54:36.820Z,1018.31
2016-09-22T05:55:36.844Z,1018.29
2016-09-22T05:56:36.865Z,1018.34
2016-09-22T05:57:36.889Z,1018.36
2016-09-22T05:59:36.937Z,1018.36
2016-09-22T06:00:36.958Z,1018.41
2016-09-22T06:01:36.984Z,1018.44
2016-09-22T06:02:37.009Z,1018.46
2016-09-22T06:03:37.033Z,1018.49
2016-09-22T06:04:37.060Z,1018.48
2016-09-22T06:05:37.087Z,1018.51
2016-09-22T06:06:37.113Z,1018.58
2016-09-22T06:07:37.138Z,1018.59
2016-09-22T06:08:37.163Z,1018.71
2016-09-22T06:09:37.190Z,1018.75
2016-09-22T06:10:37.225Z,1018.77
2016-09-22T06:11:37.244Z,1018.87
2016-09-22T06:12:37.270Z,1018.89
2016-09-22T06:13:37.301Z,1018.91
2016-09-22T06:15:37.353Z,1019.03
2016-09-22T06:16:37.383Z,1019.03
2016-09-22T06:17:37.409Z,1019.13
2016-09-22T06:18:37.439Z,1019.1
2016-09-22T06:19:37.469Z,1019.16
2016-09-22T06:20:37.498Z,1019.23
2016-09-22T06:21:37.528Z,1019.29
2016-09-22T06:22:37.555Z,1019.31
2016-09-22T06:23:37.584Z,1019.36
2016-09-22T06:24:37.613Z,1019.39
2016-09-22T06:25:37.646Z,1019.44
2016-09-22T06:26:37.673Z,1019.44
2016-09-22T06:27:37.703Z,1019.47
2016-09-22T06:28:37.736Z,1019.52
2016-09-22T06:29:37.763Z,1019.53
2016-09-22T06:31:37.824Z,1019.58
2016-09-22T06:32:37.856Z,1019.64
2016-09-22T06:33:37.888Z,1019.71
2016-09-22T06:34:37.919Z,1019.75
2016-09-22T06:35:37.949Z,1019.7
2016-09-22T06:36:37.979Z,1019.75
2016-09-22T06:37:38.013Z,1019.81
2016-09-22T06:38:38.043Z,1019.75
2016-09-22T06:39:38.077Z,1019.77
2016-09-22T06:40:38.111Z,1019.84
2016-09-22T06:41:38.139Z,1019.88
2016-09-22T06:42:38.172Z,1019.92
2016-09-22T06:43:38.209Z,1019.91
2016-09-22T06:44:38.233Z,1019.96
2016-09-22T06:46:38.298Z,1019.99
2016-09-22T06:47:38.331Z,1019.95
2016-09-22T06:48:38.364Z,1019.97
2016-09-22T06:49:38.398Z,1019.99
2016-09-22T06:50:38.431Z,1020.04
2016-09-22T06:51:38.462Z,1020.03
2016-09-22T06:52:38.496Z,1019.98
2016-09-22T06:53:38.526Z,1019.97
2016-09-22T06:54:38.559Z,1020.01
2016-09-22T06:55:38.594Z,1019.98
2016-09-22T06:56:38.627Z,1019.95
2016-09-22T06:57:38.656Z,1019.94
2016-09-22T06:58:38.690Z,1019.93
2016-09-22T06:59:38.730Z,1019.99
2016-09-22T07:00:38.759Z,1019.98
2016-09-22T07:01:38.791Z,1019.98
2016-09-22T07:02:38.824Z,1020.02
2016-09-22T07:03:38.859Z,1020.02
2016-09-22T07:04:38.892Z,1019.92
2016-09-22T07:05:38.925Z,1019.92
2016-09-22T07:06:38.957Z,1020
2016-09-22T07:07:38.991Z,1020.02
2016-09-22T07:08:39.024Z,1020
2016-09-22T07:09:39.059Z,1019.95
2016-09-22T07:10:39.090Z,1019.94
2016-09-22T07:11:39.127Z,1019.98
2016-09-22T07:12:39.161Z,1019.97
2016-09-22T07:13:39.194Z,1019.98
2016-09-22T07:14:39.225Z,1019.95
2016-09-22T07:15:39.261Z,1019.94
2016-09-22T07:16:39.294Z,1019.94
2016-09-22T07:18:39.359Z,1019.89
2016-09-22T07:19:39.394Z,1019.87
2016-09-22T07:20:39.428Z,1019.85
2016-09-22T07:21:39.460Z,1019.83
2016-09-22T07:22:39.496Z,1019.8
2016-09-22T07:23:39.530Z,1019.79
2016-09-22T07:24:39.560Z,1019.81
2016-09-22T07:25:39.796Z,1019.8
2016-09-22T07:26:39.629Z,1019.89
2016-09-22T07:27:39.662Z,1019.88
2016-09-22T07:28:39.695Z,1019.9
2016-09-22T07:29:39.728Z,1019.96
2016-09-22T07:30:39.763Z,1019.95
2016-09-22T07:31:39.796Z,1019.97
2016-09-22T07:32:39.831Z,1019.93
2016-09-22T07:34:39.896Z,1019.73
2016-09-22T07:35:39.931Z,1019.57
2016-09-22T07:36:39.965Z,1019.51
2016-09-22T07:37:39.999Z,1019.48
2016-09-22T07:38:40.032Z,1019.49
2016-09-22T07:39:40.065Z,1019.48
2016-09-22T07:40:40.099Z,1019.49
2016-09-22T07:41:40.131Z,1019.42
2016-09-22T07:42:40.164Z,1019.41
2016-09-22T07:43:40.196Z,1019.43
2016-09-22T07:44:40.231Z,1019.42
2016-09-22T07:45:40.263Z,1019.45
2016-09-22T07:46:40.294Z,1019.44
2016-09-22T07:47:40.328Z,1019.44
2016-09-22T07:48:40.363Z,1019.41
2016-09-22T07:50:40.428Z,1019.42
2016-09-22T07:51:40.459Z,1019.4
2016-09-22T07:52:40.492Z,1019.36
2016-09-22T07:53:40.524Z,1019.4
2016-09-22T07:54:40.557Z,1019.36
2016-09-22T07:55:40.592Z,1019.44
2016-09-22T07:56:40.623Z,1019.45
2016-09-22T07:57:40.657Z,1019.45
2016-09-22T07:58:40.687Z,1019.47
2016-09-22T07:59:40.719Z,1019.44
2016-09-22T08:00:40.752Z,1019.41
2016-09-22T08:01:40.786Z,1019.43
2016-09-22T08:02:40.817Z,1019.44
2016-09-22T08:03:40.849Z,1019.42
2016-09-22T08:04:40.881Z,1019.39
2016-09-22T08:06:40.948Z,1019.41
2016-09-22T08:07:40.979Z,1019.44
2016-09-22T08:08:41.012Z,1019.45
2016-09-22T08:09:41.045Z,1019.43
2016-09-22T08:10:41.075Z,1019.41
2016-09-22T08:11:41.110Z,1019.44
2016-09-22T08:12:41.139Z,1019.39
2016-09-22T08:13:41.174Z,1019.37
2016-09-22T08:14:41.207Z,1019.42
2016-09-22T08:15:41.238Z,1019.44
2016-09-22T08:16:41.270Z,1019.44
2016-09-22T08:17:41.303Z,1019.41
2016-09-22T08:18:41.333Z,1019.41
2016-09-22T08:19:41.364Z,1019.4
2016-09-22T08:21:41.432Z,1019.39
2016-09-22T08:22:41.459Z,1019.37
2016-09-22T08:23:41.494Z,1019.4
2016-09-22T08:24:41.526Z,1019.38
2016-09-22T08:25:41.558Z,1019.34
2016-09-22T08:26:41.589Z,1019.36
2016-09-22T08:27:41.621Z,1019.33
2016-09-22T08:28:41.650Z,1019.31
2016-09-22T08:29:41.684Z,1019.32
2016-09-22T08:30:41.716Z,1019.36
2016-09-22T08:31:41.745Z,1019.34
2016-09-22T08:32:41.777Z,1019.33
2016-09-22T08:33:41.810Z,1019.34
2016-09-22T08:34:41.840Z,1019.36
2016-09-22T08:35:41.873Z,1019.33
2016-09-22T08:36:41.905Z,1019.36
2016-09-22T08:37:41.933Z,1019.33
2016-09-22T08:38:41.966Z,1019.34
2016-09-22T08:39:41.998Z,1019.35
2016-09-22T08:40:42.028Z,1019.35
2016-09-22T08:41:42.061Z,1019.4
2016-09-22T08:42:42.094Z,1019.34
2016-09-22T08:43:42.128Z,1019.35
2016-09-22T08:44:42.156Z,1019.34
2016-09-22T08:45:42.187Z,1019.36
2016-09-22T08:46:42.218Z,1019.38
2016-09-22T08:47:42.251Z,1019.39
2016-09-22T08:48:42.279Z,1019.38
2016-09-22T08:49:42.312Z,1019.4
2016-09-22T08:50:42.344Z,1019.37
2016-09-22T08:51:42.377Z,1019.4
2016-09-22T08:53:42.441Z,1019.37
2016-09-22T08:54:42.473Z,1019.36
2016-09-22T08:55:42.502Z,1019.38
2016-09-22T08:56:42.533Z,1019.39
2016-09-22T08:57:42.565Z,1019.32
2016-09-22T08:58:42.597Z,1019.35
2016-09-22T08:59:42.629Z,1019.36
2016-09-22T09:00:42.660Z,1019.35
2016-09-22T09:01:42.693Z,1019.34
2016-09-22T09:02:42.722Z,1019.35
2016-09-22T09:03:42.755Z,1019.33
2016-09-22T09:04:42.787Z,1019.33
2016-09-22T09:05:42.816Z,1019.35
2016-09-22T09:06:42.850Z,1019.35
2016-09-22T09:07:42.881Z,1019.35
2016-09-22T09:09:42.940Z,1019.36
2016-09-22T09:10:42.975Z,1019.36
2016-09-22T09:11:43.005Z,1019.36
2016-09-22T09:12:43.037Z,1019.37
2016-09-22T09:13:43.068Z,1019.42
2016-09-22T09:14:43.097Z,1019.34
2016-09-22T09:15:43.131Z,1019.33
2016-09-22T09:16:43.162Z,1019.35
2016-09-22T09:17:43.191Z,1019.34
2016-09-22T09:18:43.222Z,1019.31
2016-09-22T09:19:43.256Z,1019.28
2016-09-22T09:20:43.287Z,1019.32
2016-09-22T09:21:43.315Z,1019.31
2016-09-22T09:22:43.348Z,1019.29
2016-09-22T09:23:43.380Z,1019.31
2016-09-22T09:25:43.439Z,1019.32
2016-09-22T09:26:43.472Z,1019.31
2016-09-22T09:27:43.503Z,1019.32
2016-09-22T09:28:43.530Z,1019.27
2016-09-22T09:29:43.564Z,1019.29
2016-09-22T09:30:43.593Z,1019.29
2016-09-22T09:31:43.627Z,1019.25
2016-09-22T09:32:43.655Z,1019.23
2016-09-22T09:33:43.687Z,1019.23
2016-09-22T09:34:43.719Z,1019.29
2016-09-22T09:35:43.747Z,1019.26
2016-09-22T09:36:43.779Z,1019.31
2016-09-22T09:37:43.811Z,1019.23
2016-09-22T09:38:43.841Z,1019.28
2016-09-22T09:39:43.871Z,1019.26
2016-09-22T09:41:43.933Z,1019.24
2016-09-22T09:42:43.962Z,1019.27
2016-09-22T09:43:43.991Z,1019.23
2016-09-22T09:44:44.025Z,1019.21
2016-09-22T09:45:44.055Z,1019.23
2016-09-22T09:46:44.083Z,1019.29
2016-09-22T09:47:44.116Z,1019.24
2016-09-22T09:48:44.144Z,1019.26
2016-09-22T09:49:44.175Z,1019.2
2016-09-22T09:50:44.205Z,1019.2
2016-09-22T09:51:44.237Z,1019.21
2016-09-22T09:52:44.266Z,1019.21
2016-09-22T09:53:44.298Z,1019.18
2016-09-22T09:54:44.328Z,1019.19
2016-09-22T09:56:44.389Z,1019.18
2016-09-22T09:57:44.419Z,1019.2
2016-09-22T09:58:44.447Z,1019.15
2016-09-22T09:59:44.478Z,1019.17
2016-09-22T10:00:44.511Z,1019.16
2016-09-22T10:01:44.541Z,1019.16
2016-09-22T10:02:44.569Z,1019.17
2016-09-22T10:03:44.598Z,1019.15
2016-09-22T10:04:44.631Z,1019.17
2016-09-22T10:05:44.662Z,1019.17
2016-09-22T10:06:44.692Z,1019.14
2016-09-22T10:07:44.723Z,1019.17
2016-09-22T10:08:44.751Z,1019.1
2016-09-22T10:09:44.782Z,1019.13
2016-09-22T10:10:44.811Z,1019.12
2016-09-22T10:11:44.844Z,1019.14
2016-09-22T10:12:44.870Z,1019.12
2016-09-22T10:13:44.903Z,1019.15
2016-09-22T10:14:44.931Z,1019.12
2016-09-22T10:15:44.963Z,1019.12
2016-09-22T10:16:44.993Z,1019.1
2016-09-22T10:17:45.022Z,1019.08
2016-09-22T10:18:45.051Z,1019.11
2016-09-22T10:19:45.081Z,1019.1
2016-09-22T10:20:45.112Z,1019.05
2016-09-22T10:21:45.139Z,1019.07
2016-09-22T10:22:45.171Z,1019.06
2016-09-22T10:23:45.198Z,1019.04
2016-09-22T10:24:45.230Z,1019.05
2016-09-22T10:25:45.259Z,1019.03
2016-09-22T10:26:45.288Z,1019.07
2016-09-22T10:28:45.347Z,1019.07
2016-09-22T10:29:45.374Z,1019.04
2016-09-22T10:30:45.405Z,1019.06
2016-09-22T10:31:45.432Z,1019.05
2016-09-22T10:32:45.464Z,1019.07
2016-09-22T10:33:45.493Z,1019.03
2016-09-22T10:34:45.522Z,1019.02
2016-09-22T10:35:45.548Z,1019.08
2016-09-22T10:36:45.583Z,1019.03
2016-09-22T10:37:45.605Z,1019.04
2016-09-22T10:38:45.636Z,1019.03
2016-09-22T10:39:45.664Z,1019.03
2016-09-22T10:40:45.691Z,1019
2016-09-22T10:41:45.720Z,1018.95
2016-09-22T10:42:45.751Z,1018.97
2016-09-22T10:44:45.806Z,1018.94
2016-09-22T10:45:45.836Z,1018.94
2016-09-22T10:46:45.863Z,1018.95
2016-09-22T10:47:45.893Z,1018.92
2016-09-22T10:48:45.919Z,1018.92
2016-09-22T10:49:45.949Z,1018.92
2016-09-22T10:50:45.978Z,1018.9
2016-09-22T10:51:46.005Z,1018.91
2016-09-22T10:52:46.032Z,1018.89
2016-09-22T10:53:46.061Z,1018.84
2016-09-22T10:54:46.090Z,1018.91
2016-09-22T10:55:46.117Z,1018.87
2016-09-22T10:56:46.146Z,1018.91
2016-09-22T10:57:46.173Z,1018.92
2016-09-22T10:58:46.203Z,1018.88
2016-09-22T11:00:46.257Z,1018.82
2016-09-22T11:01:46.285Z,1018.85
2016-09-22T11:02:46.315Z,1018.88
2016-09-22T11:03:46.341Z,1018.93
2016-09-22T11:04:46.370Z,1018.9
2016-09-22T11:05:46.397Z,1018.89
2016-09-22T11:06:46.426Z,1018.88
2016-09-22T11:07:46.453Z,1018.88
2016-09-22T11:08:46.679Z,1018.86
2016-09-22T11:09:46.508Z,1018.86
2016-09-22T11:10:46.533Z,1018.86
2016-09-22T11:11:46.562Z,1018.86
2016-09-22T11:12:46.590Z,1018.81
2016-09-22T11:13:46.619Z,1018.8
2016-09-22T11:14:46.644Z,1018.79
2016-09-22T11:16:46.701Z,1018.8
2016-09-22T11:17:46.730Z,1018.79
2016-09-22T11:18:46.757Z,1018.82
2016-09-22T11:19:46.785Z,1018.8
2016-09-22T11:20:46.813Z,1018.86
2016-09-22T11:21:46.839Z,1018.81
2016-09-22T11:22:46.867Z,1018.8
2016-09-22T11:23:46.895Z,1018.74
2016-09-22T11:24:46.921Z,1018.73
2016-09-22T11:25:46.950Z,1018.7
2016-09-22T11:26:46.975Z,1018.72
2016-09-22T11:27:47.005Z,1018.72
2016-09-22T11:28:47.033Z,1018.71
2016-09-22T11:29:47.060Z,1018.66
2016-09-22T11:31:47.116Z,1018.65
2016-09-22T11:32:47.141Z,1018.66
2016-09-22T11:33:47.168Z,1018.69
2016-09-22T11:34:47.199Z,1018.68
2016-09-22T11:35:47.226Z,1018.63
2016-09-22T11:36:47.251Z,1018.66
2016-09-22T11:37:47.278Z,1018.66
2016-09-22T11:38:47.308Z,1018.67
2016-09-22T11:39:47.335Z,1018.63
2016-09-22T11:40:47.361Z,1018.58
2016-09-22T11:41:47.390Z,1018.55
2016-09-22T11:42:47.417Z,1018.59
2016-09-22T11:43:47.442Z,1018.59
2016-09-22T11:44:47.472Z,1018.57
2016-09-22T11:45:47.498Z,1018.56
2016-09-22T11:46:47.526Z,1018.52
2016-09-22T11:47:47.553Z,1018.52
2016-09-22T11:48:47.580Z,1018.51
2016-09-22T11:49:47.608Z,1018.52
2016-09-22T11:50:47.636Z,1018.49
2016-09-22T11:51:47.662Z,1018.5
2016-09-22T11:52:47.690Z,1018.49
2016-09-22T11:53:47.717Z,1018.48
2016-09-22T11:54:47.746Z,1018.48
2016-09-22T11:55:47.773Z,1018.5
2016-09-22T11:56:47.802Z,1018.47
2016-09-22T11:57:47.829Z,1018.49
2016-09-22T11:58:47.852Z,1018.47
2016-09-22T11:59:47.882Z,1018.49
2016-09-22T12:00:47.910Z,1018.45
2016-09-22T12:01:47.935Z,1018.43
2016-09-22T12:03:47.992Z,1018.4
2016-09-22T12:04:48.018Z,1018.39
2016-09-22T12:05:48.044Z,1018.41
2016-09-22T12:06:48.074Z,1018.38
2016-09-22T12:07:48.099Z,1018.38
2016-09-22T12:08:48.126Z,1018.38
2016-09-22T12:09:48.153Z,1018.37
2016-09-22T12:10:48.483Z,1018.35
2016-09-22T12:11:48.210Z,1018.37
2016-09-22T12:12:48.234Z,1018.33
2016-09-22T12:13:48.264Z,1018.35
2016-09-22T12:14:48.291Z,1018.38
2016-09-22T12:15:48.319Z,1018.37
2016-09-22T12:16:48.344Z,1018.35
2016-09-22T12:17:48.371Z,1018.33
2016-09-22T12:19:48.426Z,1018.31
2016-09-22T12:20:48.455Z,1018.31
2016-09-22T12:21:48.480Z,1018.28
2016-09-22T12:22:48.507Z,1018.33
2016-09-22T12:23:48.534Z,1018.3
2016-09-22T12:24:48.569Z,1018.29
2016-09-22T12:25:48.591Z,1018.3
2016-09-22T12:26:48.619Z,1018.22
2016-09-22T12:27:48.644Z,1018.3
2016-09-22T12:28:48.672Z,1018.25
2016-09-22T12:29:48.700Z,1018.25
2016-09-22T12:30:48.728Z,1018.24
2016-09-22T12:31:48.754Z,1018.24
2016-09-22T12:32:48.781Z,1018.22
2016-09-22T12:33:48.807Z,1018.21
2016-09-22T12:35:48.863Z,1018.21
2016-09-22T12:36:48.888Z,1018.22
2016-09-22T12:37:48.918Z,1018.2
2016-09-22T12:38:48.944Z,1018.24
2016-09-22T12:39:48.970Z,1018.22
2016-09-22T12:40:49.000Z,1018.23
2016-09-22T12:41:49.026Z,1018.21
2016-09-22T12:42:49.051Z,1018.2
2016-09-22T12:43:49.079Z,1018.18
2016-09-22T12:44:49.108Z,1018.17
2016-09-22T12:45:49.135Z,1018.17
2016-09-22T12:46:49.160Z,1018.12
2016-09-22T12:47:49.189Z,1018.1
2016-09-22T12:48:49.216Z,1018.08